Time;durP1;ratioP1;P1;durP2;ratioP2;P2;SDS_P1;SDS_P2;PMS_P1;PMS_P2;Temp;Humidity;BMP_temperature;BMP_pressure;BME280_temperature;BME280_humidity;BME280_pressure;Samples;Min_cycle;Max_cycle;Signal;HPM_P1;HPM_P2
2022/01/27 00:02:41;;;;;;;91.38;28.35;;;;;;;-2.58;87.19;97425.78;10323521;28;97028;-65
2022/01/27 00:07:52;;;;;;;88.33;27.63;;;;;;;-2.61;87.36;97421.56;10319863;28;97099;-66
2022/01/27 00:12:57;;;;;;;96.28;31.05;;;;;;;-2.67;88.33;97422.56;10327030;28;97715;-66
2022/01/27 00:18:03;;;;;;;83.03;26.92;;;;;;;-2.64;88.13;97417.38;10324291;28;96905;-65
2022/01/27 00:23:06;;;;;;;69.93;23.73;;;;;;;-2.49;88.15;97415.31;10327350;28;96998;-66
2022/01/27 00:28:11;;;;;;;72.53;25.92;;;;;;;-2.34;86.74;97414.91;10345077;28;96929;-66
2022/01/27 00:33:14;;;;;;;80.72;28.08;;;;;;;-2.25;87.56;97404.44;10334580;28;96851;-65
2022/01/27 00:38:17;;;;;;;81.15;27.27;;;;;;;-2.18;87.63;97397.44;10334494;28;98470;-66
2022/01/27 00:43:21;;;;;;;80.55;26.95;;;;;;;-2.12;87.55;97394.72;10332231;28;97234;-66
2022/01/27 00:48:24;;;;;;;79.22;26.60;;;;;;;-2.06;86.77;97403.94;10341625;28;98678;-65
2022/01/27 00:53:38;;;;;;;73.57;25.85;;;;;;;-2.08;87.16;97395.47;10337614;28;96835;-66
2022/01/27 00:58:51;;;;;;;71.32;24.80;;;;;;;-2.13;87.45;97389.63;10342622;28;98669;-65
2022/01/27 01:03:58;;;;;;;80.70;26.17;;;;;;;-2.12;86.93;97394.72;10333467;28;97706;-66
2022/01/27 01:19:59;;;;;;;84.60;27.05;;;;;;;-2.01;87.46;97391.84;10329908;28;98485;-65
2022/01/27 01:30:45;;;;;;;83.95;27.65;;;;;;;-1.94;86.23;97383.13;10325782;28;97052;-66
2022/01/27 01:35:50;;;;;;;80.32;25.38;;;;;;;-2.16;86.84;97376.91;10337497;28;96786;-67
2022/01/27 01:40:56;;;;;;;85.03;25.85;;;;;;;-2.22;87.28;97383.88;10316105;28;100357;-65
2022/01/27 01:46:00;;;;;;;80.80;26.50;;;;;;;-2.32;87.21;97374.75;10344557;28;97040;-65
2022/01/27 01:51:04;;;;;;;87.33;27.00;;;;;;;-2.24;86.82;97380.53;10329329;28;97971;-65
2022/01/27 01:56:07;;;;;;;80.82;27.60;;;;;;;-2.16;87.25;97382.03;10330700;28;96782;-65
2022/01/27 02:01:11;;;;;;;77.35;25.98;;;;;;;-2.10;86.48;97387.00;10341509;28;100921;-65
2022/01/27 02:06:21;;;;;;;79.45;26.88;;;;;;;-2.08;86.56;97386.06;10327088;28;97605;-65
2022/01/27 02:22:12;;;;;;;73.30;27.00;;;;;;;-2.14;87.07;97364.91;10190263;28;96936;-65
2022/01/27 02:27:16;;;;;;;75.95;27.25;;;;;;;-2.10;86.94;97361.41;10197250;28;98456;-66
2022/01/27 02:32:24;;;;;;;74.32;26.67;;;;;;;-2.18;86.61;97358.19;10188374;28;97129;-65
2022/01/27 02:37:28;;;;;;;64.63;23.03;;;;;;;-2.25;86.54;97360.91;10202104;28;99037;-65
2022/01/27 02:42:33;;;;;;;77.57;24.08;;;;;;;-2.15;87.27;97373.47;10200460;28;97141;-65
2022/01/27 02:47:36;;;;;;;78.97;25.20;;;;;;;-2.09;86.49;97357.94;10186821;28;97330;-65
2022/01/27 02:52:41;;;;;;;81.57;26.08;;;;;;;-2.12;85.72;97355.47;10182748;28;97769;-65
2022/01/27 02:57:44;;;;;;;75.03;25.93;;;;;;;-2.23;86.75;97343.81;10270408;28;97271;-65
2022/01/27 03:02:46;;;;;;;75.50;27.63;;;;;;;-2.29;85.68;97341.41;10329188;28;97300;-65
2022/01/27 03:07:51;;;;;;;75.55;26.30;;;;;;;-2.29;86.16;97345.69;10331833;28;97605;-65
2022/01/27 03:12:59;;;;;;;72.03;24.42;;;;;;;-2.29;86.26;97330.34;10340095;28;103260;-66
2022/01/27 03:18:02;;;;;;;94.55;25.08;;;;;;;-2.48;85.95;97332.56;10337875;28;98291;-65
2022/01/27 03:23:07;;;;;;;101.07;25.83;;;;;;;-2.53;86.74;97331.84;10321552;28;96775;-65
2022/01/27 03:28:11;;;;;;;74.70;24.83;;;;;;;-2.57;86.11;97343.03;10322160;28;96987;-65
2022/01/27 03:33:14;;;;;;;78.60;25.48;;;;;;;-2.65;86.12;97345.78;10326061;28;97812;-66
2022/01/27 03:38:18;;;;;;;96.60;24.85;;;;;;;-2.72;86.93;97351.94;10325917;28;98192;-65
2022/01/27 03:43:21;;;;;;;86.17;24.00;;;;;;;-2.85;87.11;97351.41;10321350;28;100830;-65
2022/01/27 03:48:24;;;;;;;87.13;24.80;;;;;;;-2.81;86.87;97363.25;10327448;28;96818;-68
2022/01/27 03:53:28;;;;;;;99.22;25.98;;;;;;;-2.81;86.18;97355.56;10329714;28;96701;-67
2022/01/27 03:58:31;;;;;;;85.97;25.27;;;;;;;-2.87;86.99;97358.25;10334791;28;97046;-65
2022/01/27 04:03:37;;;;;;;83.47;25.35;;;;;;;-2.80;86.32;97360.66;10345400;28;97083;-65
2022/01/27 04:08:41;;;;;;;88.25;25.52;;;;;;;-2.74;86.70;97374.16;10332752;28;96874;-65
2022/01/27 04:13:44;;;;;;;87.75;24.77;;;;;;;-2.67;86.08;97361.16;10337635;28;101119;-65
2022/01/27 04:18:47;;;;;;;94.95;24.45;;;;;;;-2.58;87.28;97369.50;10322858;28;98446;-65
2022/01/27 04:23:52;;;;;;;83.03;25.73;;;;;;;-2.57;86.90;97376.31;10324749;28;97077;-65
2022/01/27 04:28:55;;;;;;;67.47;22.73;;;;;;;-2.90;86.52;97379.66;10330248;28;98767;-66
2022/01/27 04:33:58;;;;;;;84.88;25.90;;;;;;;-2.93;87.54;97361.00;10327733;28;97073;-65
2022/01/27 04:39:12;;;;;;;78.38;24.77;;;;;;;-2.97;87.62;97362.78;10307239;28;96984;-65
2022/01/27 04:44:23;;;;;;;93.70;25.25;;;;;;;-3.03;87.99;97366.34;10345753;28;97160;-65
2022/01/27 04:49:26;;;;;;;73.82;25.60;;;;;;;-3.01;87.77;97368.81;10325444;28;96858;-68
2022/01/27 04:54:35;;;;;;;81.65;24.85;;;;;;;-2.90;87.52;97364.31;10330150;28;96761;-65
2022/01/27 04:59:41;;;;;;;88.32;26.63;;;;;;;-2.88;86.23;97366.84;10336272;28;97188;-65
2022/01/27 05:04:49;;;;;;;72.72;24.92;;;;;;;-3.08;87.52;97364.75;10331323;28;98331;-66
2022/01/27 05:10:14;;;;;;;63.35;21.67;;;;;;;-3.29;88.15;97371.19;10325772;28;97739;-65
2022/01/27 05:15:24;;;;;;;64.63;23.13;;;;;;;-3.31;87.53;97367.84;10340426;28;96911;-65
2022/01/27 05:20:27;;;;;;;75.60;22.95;;;;;;;-3.29;87.94;97373.75;10343325;28;96849;-68
2022/01/27 05:25:31;;;;;;;70.15;22.05;;;;;;;-3.33;88.02;97372.16;10326600;28;98340;-67
2022/01/27 05:30:35;;;;;;;79.15;24.45;;;;;;;-3.29;87.56;97373.75;10327764;28;96918;-70
2022/01/27 05:35:38;;;;;;;82.82;23.17;;;;;;;-3.22;88.06;97370.19;10317158;28;97040;-68
2022/01/27 05:40:43;;;;;;;75.60;25.98;;;;;;;-3.16;88.06;97368.31;10318368;28;97327;-68
2022/01/27 05:45:46;;;;;;;;;;;;;;;-3.00;86.43;97373.06;10349025;28;97644;-68
2022/01/27 05:50:49;;;;;;;75.25;21.88;;;;;;;-3.35;86.57;97367.06;10338595;28;98912;-68
2022/01/27 05:55:54;;;;;;;67.95;22.35;;;;;;;-3.54;88.35;97370.03;10334302;28;98257;-68
2022/01/27 06:00:57;;;;;;;63.70;21.92;;;;;;;-3.49;88.19;97362.28;10318052;28;97320;-65
2022/01/27 06:06:00;;;;;;;75.15;23.10;;;;;;;-3.53;87.40;97363.22;10328502;28;97085;-68
2022/01/27 06:11:04;;;;;;;71.00;21.73;;;;;;;-3.51;88.18;97371.69;10321553;28;96963;-68
2022/01/27 06:16:10;;;;;;;77.30;23.25;;;;;;;-3.42;88.23;97370.66;10322065;28;97539;-68
2022/01/27 06:21:14;;;;;;;76.57;23.33;;;;;;;-3.31;88.17;97373.78;10340323;28;96950;-68
2022/01/27 06:26:18;;;;;;;68.78;23.45;;;;;;;-3.23;86.85;97378.75;10329839;28;98543;-68
2022/01/27 06:31:21;;;;;;;70.13;22.33;;;;;;;-3.12;87.80;97379.31;10340476;28;99026;-68
2022/01/27 06:36:24;;;;;;;62.13;21.20;;;;;;;-2.99;87.59;97380.72;10321566;28;96885;-68
2022/01/27 06:41:31;;;;;;;70.78;22.50;;;;;;;-2.91;86.79;97382.25;10320203;28;103907;-68
2022/01/27 06:46:35;;;;;;;67.20;22.20;;;;;;;-3.00;86.09;97376.47;10318808;28;98421;-68
2022/01/27 06:51:38;;;;;;;63.08;21.13;;;;;;;-3.00;87.29;97378.19;10323331;28;97388;-65
2022/01/27 06:56:43;;;;;;;63.30;21.45;;;;;;;-3.15;86.61;97379.38;10327048;28;97455;-66
2022/01/27 07:01:46;;;;;;;75.63;22.43;;;;;;;-3.32;87.22;97392.56;10332713;28;97140;-69
2022/01/27 07:06:52;;;;;;;66.22;21.52;;;;;;;-3.35;87.04;97390.91;10320041;28;97261;-68
2022/01/27 07:11:56;;;;;;;62.33;22.60;;;;;;;-3.43;87.52;97394.50;10317692;28;96803;-68
2022/01/27 07:16:59;;;;;;;52.37;18.70;;;;;;;-3.50;87.18;97401.47;10343487;28;98236;-68
2022/01/27 07:22:02;;;;;;;57.85;18.83;;;;;;;-3.54;87.79;97402.41;10328276;28;97102;-68
2022/01/27 07:27:07;;;;;;;63.13;20.73;;;;;;;-3.53;86.62;97401.53;10325170;28;97588;-68
2022/01/27 07:32:10;;;;;;;76.80;23.75;;;;;;;-3.49;87.27;97415.94;10336181;28;98041;-68
2022/01/27 07:37:19;;;;;;;68.20;21.88;;;;;;;-3.44;87.53;97414.13;10325784;28;96962;-68
2022/01/27 07:42:23;;;;;;;62.47;21.15;;;;;;;-3.51;86.44;97412.56;10321915;28;96980;-68
2022/01/27 07:47:26;;;;;;;57.53;20.10;;;;;;;-3.61;87.17;97411.06;10316959;28;96843;-68
2022/01/27 07:52:29;;;;;;;52.75;17.77;;;;;;;-3.56;87.51;97404.16;10328277;28;97371;-68
2022/01/27 07:57:34;;;;;;;56.28;18.77;;;;;;;-3.61;87.26;97417.00;10334618;28;96929;-68
2022/01/27 08:02:37;;;;;;;60.63;20.43;;;;;;;-3.61;87.83;97424.69;10349862;28;101068;-68
2022/01/27 08:07:40;;;;;;;69.60;20.35;;;;;;;-3.56;86.75;97424.59;10323511;28;96984;-68
2022/01/27 08:12:45;;;;;;;67.72;21.05;;;;;;;-3.62;87.01;97424.72;10322432;28;96842;-68
2022/01/27 08:17:48;;;;;;;71.33;21.37;;;;;;;-3.57;86.84;97420.34;10321246;28;98490;-68
2022/01/27 08:22:52;;;;;;;67.55;20.38;;;;;;;-3.65;87.50;97419.66;10351462;28;96913;-68
2022/01/27 08:27:59;;;;;;;72.60;20.90;;;;;;;-3.70;87.79;97426.56;10317052;28;97656;-68
2022/01/27 08:33:08;;;;;;;64.25;19.33;;;;;;;-3.66;87.55;97435.88;10342347;28;97105;-69
2022/01/27 08:38:11;;;;;;;67.00;20.80;;;;;;;-3.65;86.98;97434.97;10335968;28;98020;-68
2022/01/27 08:43:15;;;;;;;61.05;20.38;;;;;;;-3.71;88.53;97445.34;10332862;28;98869;-68
2022/01/27 08:48:21;;;;;;;73.45;20.40;;;;;;;-3.85;88.06;97443.88;10329143;28;97323;-68
2022/01/27 08:53:25;;;;;;;65.93;19.92;;;;;;;-3.82;87.66;97446.38;10336246;28;98538;-68
2022/01/27 08:58:31;;;;;;;69.85;20.73;;;;;;;-3.46;87.18;97449.06;10347011;28;97360;-68
2022/01/27 09:03:35;;;;;;;62.20;19.73;;;;;;;-3.41;87.03;97442.16;10342910;28;97432;-68
2022/01/27 09:08:38;;;;;;;60.22;20.48;;;;;;;-3.26;87.64;97452.91;10322085;28;96932;-69
2022/01/27 09:13:42;;;;;;;58.10;19.85;;;;;;;-3.27;86.86;97444.41;10311666;28;96867;-68
2022/01/27 09:18:45;;;;;;;57.33;20.03;;;;;;;-3.12;87.09;97448.34;10323353;28;98279;-68
2022/01/27 09:23:48;;;;;;;58.40;19.00;;;;;;;-3.00;87.19;97445.50;10334644;28;96838;-68
2022/01/27 09:28:53;;;;;;;55.88;19.45;;;;;;;-2.80;87.31;97446.78;10327246;28;96988;-68
2022/01/27 09:33:56;;;;;;;52.75;19.05;;;;;;;-2.66;87.18;97449.84;10320748;28;98518;-66
2022/01/27 09:39:00;;;;;;;53.78;19.77;;;;;;;-2.48;86.28;97450.25;10336705;28;97015;-66
2022/01/27 09:44:05;;;;;;;52.83;18.48;;;;;;;-2.36;86.11;97447.38;10334043;28;99558;-67
2022/01/27 09:49:14;;;;;;;55.08;19.58;;;;;;;-2.42;85.87;97435.59;10345909;28;97972;-66
2022/01/27 09:54:18;;;;;;;55.83;18.90;;;;;;;-2.20;86.36;97442.72;10312541;28;98152;-66
2022/01/27 09:59:22;;;;;;;48.22;17.65;;;;;;;-2.06;85.72;97444.91;10346541;28;96914;-66
2022/01/27 10:04:42;;;;;;;55.90;20.37;;;;;;;-2.08;84.81;97446.69;10323933;28;97384;-66
2022/01/27 10:10:05;;;;;;;45.50;18.27;;;;;;;-1.77;85.97;97444.13;10334234;28;96907;-66
2022/01/27 10:15:12;;;;;;;51.08;17.73;;;;;;;-1.47;85.24;97426.19;10317902;28;97320;-66
2022/01/27 10:20:16;;;;;;;47.42;18.83;;;;;;;-1.27;84.18;97426.47;10321927;28;97819;-66
2022/01/27 10:25:21;;;;;;;50.60;19.27;;;;;;;-1.46;84.57;97425.31;10320086;28;98028;-66
2022/01/27 10:35:45;;;;;;;44.63;18.65;;;;;;;-1.77;84.62;97433.06;10310780;28;96891;-66
2022/01/27 10:40:48;;;;;;;46.15;17.27;;;;;;;-1.75;84.65;97428.72;10338512;28;96800;-67
2022/01/27 10:46:10;;;;;;;47.15;19.65;;;;;;;-2.02;85.26;97426.03;10323718;28;96972;-66
2022/01/27 10:51:19;;;;;;;52.10;20.35;;;;;;;-1.60;84.84;97423.16;10328535;28;99093;-66
2022/01/27 10:56:25;;;;;;;44.88;19.08;;;;;;;-1.08;83.27;97411.34;10338225;28;96973;-66
2022/01/27 11:01:32;;;;;;;53.58;20.85;;;;;;;-0.88;82.52;97422.72;10331327;28;96888;-66
2022/01/27 11:06:37;;;;;;;47.13;20.17;;;;;;;-0.87;82.61;97424.41;10308481;28;96881;-66
2022/01/27 11:11:40;;;;;;;54.23;22.13;;;;;;;-0.63;82.51;97421.91;10313134;28;98877;-66
2022/01/27 11:16:45;;;;;;;48.67;20.67;;;;;;;-0.41;81.83;97407.47;10312889;28;97030;-67
2022/01/27 11:21:53;;;;;;;42.45;19.85;;;;;;;-0.33;81.85;97410.63;10306254;28;97060;-66
2022/01/27 11:26:59;;;;;;;47.85;19.88;;;;;;;-0.22;81.88;97399.16;10324475;28;96907;-66
2022/01/27 11:32:17;;;;;;;47.38;20.50;;;;;;;-0.12;81.21;97405.66;10312429;28;97449;-70
2022/01/27 11:37:33;;;;;;;46.28;19.67;;;;;;;0.07;80.41;97402.47;10322715;28;97949;-66
2022/01/27 11:43:02;;;;;;;48.15;20.17;;;;;;;-0.18;80.73;97395.59;10318440;28;97736;-66
2022/01/27 11:48:10;;;;;;;45.28;20.65;;;;;;;-0.67;81.46;97384.41;10307453;28;97013;-66
2022/01/27 11:53:29;;;;;;;54.30;22.13;;;;;;;-0.92;81.19;97377.53;10311610;28;96913;-66
2022/01/27 11:58:43;;;;;;;42.75;19.67;;;;;;;-0.87;81.30;97379.94;10307258;28;98849;-66
2022/01/27 12:04:15;;;;;;;43.55;19.13;;;;;;;-0.61;81.28;97373.97;10324898;28;97011;-66
2022/01/27 12:09:30;;;;;;;45.50;21.20;;;;;;;-0.27;80.23;97372.81;10311073;28;96987;-66
2022/01/27 12:15:03;;;;;;;45.20;20.45;;;;;;;-0.21;80.29;97367.47;10306982;28;97011;-66
2022/01/27 12:20:11;;;;;;;41.40;18.90;;;;;;;-0.01;79.74;97361.59;10310581;28;96868;-66
2022/01/27 12:25:14;;;;;;;40.15;19.48;;;;;;;0.11;79.22;97352.63;10317230;28;97020;-66
2022/01/27 12:30:18;;;;;;;45.10;19.30;;;;;;;0.00;79.35;97351.28;10302647;28;97055;-66
2022/01/27 12:35:22;;;;;;;42.05;19.23;;;;;;;0.17;79.17;97342.13;10314708;28;96892;-66
2022/01/27 12:40:29;;;;;;;42.17;19.77;;;;;;;0.20;79.02;97345.44;10314038;28;96684;-66
2022/01/27 12:45:34;;;;;;;46.60;22.08;;;;;;;0.43;78.60;97331.69;10304033;28;97986;-66
2022/01/27 12:50:38;;;;;;;49.95;22.77;;;;;;;0.69;78.19;97342.72;10324324;28;96964;-66
2022/01/27 12:55:43;;;;;;;45.33;21.67;;;;;;;0.62;77.79;97328.44;10323066;28;97152;-66
2022/01/27 13:00:48;;;;;;;49.60;22.80;;;;;;;0.47;78.15;97319.56;10319391;28;100429;-66
2022/01/27 13:05:53;;;;;;;;;;;;;;;0.54;77.83;97309.88;10308318;28;97917;-66
2022/01/27 13:11:01;;;;;;;40.92;20.02;;;;;;;0.63;77.63;97306.94;10318442;28;97055;-66
2022/01/27 13:16:08;;;;;;;43.00;20.45;;;;;;;0.50;78.03;97287.78;10314742;28;96846;-66
2022/01/27 13:21:22;;;;;;;40.50;17.67;;;;;;;0.14;77.97;97285.72;10307942;28;96871;-66
2022/01/27 13:26:25;;;;;;;38.25;16.33;;;;;;;0.17;78.87;97276.16;10309930;28;97041;-66
2022/01/27 13:31:28;;;;;;;37.17;16.52;;;;;;;0.41;78.41;97274.38;10311583;28;96954;-66
2022/01/27 13:36:35;;;;;;;39.95;18.20;;;;;;;0.56;77.44;97266.94;10317017;28;96759;-66
2022/01/27 13:41:41;;;;;;;41.10;18.95;;;;;;;0.08;77.86;97260.25;10308729;28;97238;-66
2022/01/27 13:46:46;;;;;;;39.20;17.33;;;;;;;0.03;78.60;97253.56;10320079;28;96796;-66
2022/01/27 13:51:53;;;;;;;40.10;17.77;;;;;;;0.24;78.02;97251.06;10303583;28;98258;-67
2022/01/27 13:56:56;;;;;;;40.80;18.55;;;;;;;0.44;77.11;97242.56;10309507;28;97652;-66
2022/01/27 14:02:19;;;;;;;45.17;18.38;;;;;;;0.58;77.16;97242.88;10311932;28;97004;-66
2022/01/27 14:07:29;;;;;;;42.70;18.23;;;;;;;0.73;76.16;97243.97;10316427;28;96993;-66
2022/01/27 14:12:45;;;;;;;42.03;19.27;;;;;;;0.61;76.39;97244.47;10314336;28;96966;-67
2022/01/27 14:17:56;;;;;;;44.58;19.08;;;;;;;0.77;76.92;97239.53;10308952;28;96829;-66
2022/01/27 14:23:14;;;;;;;49.53;19.95;;;;;;;0.77;76.45;97237.78;10313314;28;97839;-66
2022/01/27 14:28:17;;;;;;;46.83;20.17;;;;;;;0.73;76.76;97251.69;10325817;28;98424;-66
2022/01/27 14:33:20;;;;;;;49.80;19.88;;;;;;;0.59;76.77;97253.97;10338639;28;96943;-66
2022/01/27 14:38:24;;;;;;;40.45;18.80;;;;;;;0.47;76.95;97252.72;10332551;28;98728;-66
2022/01/27 14:43:29;;;;;;;40.30;19.43;;;;;;;0.28;77.44;97247.47;10337490;28;99049;-66
2022/01/27 14:48:34;;;;;;;40.38;19.85;;;;;;;0.27;77.66;97253.50;10347609;28;98428;-66
2022/01/27 14:53:40;;;;;;;42.97;18.33;;;;;;;0.42;76.80;97265.75;10346559;28;101027;-66
2022/01/27 14:58:42;;;;;;;;;;;;;;;0.43;77.00;97257.16;10338000;28;97162;-66
2022/01/27 15:03:45;;;;;;;42.67;18.88;;;;;;;0.62;77.05;97261.56;10339231;28;99733;-66
2022/01/27 15:08:52;;;;;;;39.15;18.55;;;;;;;0.94;76.49;97277.44;10331171;28;96872;-67
2022/01/27 15:14:02;;;;;;;35.22;17.58;;;;;;;0.80;75.85;97278.00;10344837;28;98160;-67
2022/01/27 15:19:21;;;;;;;32.13;17.17;;;;;;;0.40;76.54;97271.88;10340047;28;96814;-67
2022/01/27 15:24:26;;;;;;;36.28;17.65;;;;;;;0.01;77.03;97275.91;10352759;28;96955;-68
2022/01/27 15:29:32;;;;;;;41.45;20.30;;;;;;;-0.31;77.35;97268.53;10354401;28;96951;-66
2022/01/27 15:34:36;;;;;;;36.72;18.92;;;;;;;-0.65;78.45;97264.59;10343725;28;97744;-66
2022/01/27 15:39:46;;;;;;;41.88;19.70;;;;;;;-1.00;79.12;97269.22;10356662;28;96929;-66
2022/01/27 15:44:49;;;;;;;41.03;19.10;;;;;;;-0.94;78.61;97269.00;10323012;28;97287;-67
2022/01/27 15:49:53;;;;;;;44.47;19.17;;;;;;;-0.90;78.29;97283.41;10316181;28;96991;-66
2022/01/27 15:54:57;;;;;;;42.03;19.55;;;;;;;-1.20;78.85;97291.22;10335401;28;97368;-66
2022/01/27 16:00:01;;;;;;;44.40;21.40;;;;;;;-1.15;78.86;97288.53;10333339;28;97812;-67
2022/01/27 16:05:05;;;;;;;48.00;21.90;;;;;;;-1.21;78.79;97297.22;10317233;28;96884;-66
2022/01/27 16:10:10;;;;;;;48.97;21.98;;;;;;;-1.37;79.41;97290.94;10317500;28;98674;-66
2022/01/27 16:15:13;;;;;;;46.35;23.30;;;;;;;-1.49;79.66;97295.53;10341944;28;97821;-66
2022/01/27 16:20:22;;;;;;;44.92;21.83;;;;;;;-1.54;80.08;97297.41;10346223;28;97099;-66
2022/01/27 16:25:27;;;;;;;44.35;21.65;;;;;;;-1.52;79.68;97302.47;10349665;28;96900;-66
2022/01/27 16:30:30;;;;;;;44.97;22.43;;;;;;;-1.42;79.35;97303.03;10329333;28;96901;-66
2022/01/27 16:35:33;;;;;;;44.40;21.85;;;;;;;-1.49;80.12;97298.09;10340696;28;98267;-66
2022/01/27 16:40:37;;;;;;;51.90;23.27;;;;;;;-1.59;80.33;97296.69;10344511;28;98060;-66
2022/01/27 16:45:41;;;;;;;50.67;25.03;;;;;;;-1.70;80.76;97294.47;10349687;28;96942;-66
2022/01/27 16:50:45;;;;;;;47.55;24.33;;;;;;;-1.55;80.62;97285.50;10347112;28;98714;-66
2022/01/27 16:55:49;;;;;;;54.55;26.10;;;;;;;-1.63;79.64;97286.63;10342259;28;98553;-66
2022/01/27 17:00:52;;;;;;;54.92;24.63;;;;;;;-1.81;80.82;97295.69;10346751;28;97093;-66
2022/01/27 17:05:55;;;;;;;55.78;25.67;;;;;;;-1.84;80.09;97302.56;10341386;28;97714;-66
2022/01/27 17:11:00;;;;;;;51.78;26.17;;;;;;;-1.78;80.29;97303.28;10342859;28;98208;-66
2022/01/27 17:16:04;;;;;;;55.35;25.50;;;;;;;-1.80;80.54;97285.38;10336615;28;97661;-66
2022/01/27 17:21:08;;;;;;;54.87;24.97;;;;;;;-2.03;80.18;97288.63;10340521;28;97036;-66
2022/01/27 17:26:14;;;;;;;52.78;23.50;;;;;;;-2.24;80.24;97298.59;10337877;28;96782;-66
2022/01/27 17:31:17;;;;;;;53.80;25.27;;;;;;;-2.37;80.59;97304.13;10338710;28;103543;-66
2022/01/27 17:36:20;;;;;;;56.75;25.60;;;;;;;-2.31;80.82;97311.63;10343405;28;98043;-66
2022/01/27 17:41:28;;;;;;;57.50;27.38;;;;;;;-2.25;80.90;97326.81;10323645;28;98877;-66
2022/01/27 17:46:31;;;;;;;55.40;26.40;;;;;;;-2.24;81.08;97344.69;10323245;28;96780;-67
2022/01/27 17:51:34;;;;;;;51.33;25.85;;;;;;;-2.17;80.89;97337.69;10345537;28;97817;-66
2022/01/27 17:56:38;;;;;;;51.85;25.38;;;;;;;-2.16;81.90;97324.00;10340980;28;98173;-68
2022/01/27 18:01:41;;;;;;;55.23;26.57;;;;;;;-2.21;81.63;97323.28;10328039;28;96947;-64
2022/01/27 18:06:44;;;;;;;55.53;26.42;;;;;;;-2.35;81.61;97310.88;10330040;28;99608;-66
2022/01/27 18:11:49;;;;;;;61.65;27.95;;;;;;;-2.47;81.39;97308.63;10329362;28;98367;-66
2022/01/27 18:16:54;;;;;;;54.67;26.27;;;;;;;-2.48;81.40;97322.31;10349846;28;97017;-66
2022/01/27 18:21:57;;;;;;;57.55;25.95;;;;;;;-2.41;81.13;97331.50;10323641;28;97056;-66
2022/01/27 18:27:02;;;;;;;56.30;27.05;;;;;;;-2.40;81.96;97328.09;10334651;28;97178;-66
2022/01/27 18:32:05;;;;;;;60.27;28.07;;;;;;;-2.42;82.25;97327.25;10318997;28;97086;-66
2022/01/27 18:37:08;;;;;;;74.10;27.83;;;;;;;-2.42;82.29;97334.94;10322067;28;98332;-66
2022/01/27 18:42:13;;;;;;;56.45;26.15;;;;;;;-2.51;82.68;97330.06;10330039;28;96820;-66
2022/01/27 18:47:17;;;;;;;65.67;27.40;;;;;;;-2.50;81.63;97321.53;10338368;28;98220;-66
2022/01/27 18:52:20;;;;;;;66.93;25.38;;;;;;;-2.43;82.58;97317.91;10327686;28;97760;-66
2022/01/27 18:57:24;;;;;;;59.78;27.27;;;;;;;-2.43;82.08;97313.63;10332258;28;98588;-68
2022/01/27 19:02:27;;;;;;;81.87;35.20;;;;;;;-2.43;82.01;97318.75;10324308;28;98498;-66
2022/01/27 19:07:31;;;;;;;60.47;25.38;;;;;;;-2.67;82.08;97310.00;10309017;28;96779;-68
2022/01/27 19:12:35;;;;;;;60.30;27.50;;;;;;;-2.73;82.01;97315.31;10308320;28;96917;-69
2022/01/27 19:17:38;;;;;;;61.13;25.15;;;;;;;-2.82;82.11;97315.50;10317035;28;97789;-66
2022/01/27 19:22:41;;;;;;;58.35;26.35;;;;;;;-3.13;83.55;97329.09;10313423;28;97086;-66
2022/01/27 19:27:46;;;;;;;52.95;24.08;;;;;;;-3.12;82.39;97320.53;10321136;28;98907;-66
2022/01/27 19:32:52;;;;;;;70.22;24.50;;;;;;;-3.28;82.59;97343.06;10329104;28;97105;-69
2022/01/27 19:37:55;;;;;;;63.28;24.90;;;;;;;-3.56;83.10;97341.13;10320351;28;96956;-68
2022/01/27 19:43:00;;;;;;;58.30;25.15;;;;;;;-3.61;82.58;97342.13;10338008;28;99066;-68
2022/01/27 19:48:06;;;;;;;86.30;28.20;;;;;;;-3.87;82.94;97333.31;10345497;28;96858;-68
2022/01/27 19:53:10;;;;;;;129.57;28.42;;;;;;;-4.20;84.24;97332.28;10351930;28;98414;-69
2022/01/27 19:58:15;;;;;;;75.63;25.77;;;;;;;-4.24;83.35;97343.41;10343297;28;97385;-67
2022/01/27 20:03:18;;;;;;;79.90;29.70;;;;;;;-4.23;83.88;97351.03;10332171;28;98002;-70
2022/01/27 20:08:21;;;;;;;81.57;29.42;;;;;;;-4.13;83.56;97349.16;10350416;28;97000;-68
2022/01/27 20:13:26;;;;;;;65.22;26.58;;;;;;;-4.21;83.24;97369.72;10328456;28;97360;-69
2022/01/27 20:18:30;;;;;;;59.25;24.45;;;;;;;-4.31;83.79;97383.53;10326998;28;97147;-68
2022/01/27 20:23:34;;;;;;;66.97;25.88;;;;;;;-4.43;83.32;97386.28;10324736;28;98021;-68
2022/01/27 20:28:38;;;;;;;57.83;26.25;;;;;;;-4.59;84.01;97386.59;10334178;28;97305;-66
2022/01/27 20:33:41;;;;;;;64.30;27.17;;;;;;;-4.66;83.34;97382.44;10327469;28;96956;-66
2022/01/27 20:38:44;;;;;;;66.68;26.50;;;;;;;-4.78;83.77;97382.66;10324918;28;98474;-69
2022/01/27 20:43:49;;;;;;;75.25;27.50;;;;;;;-4.81;84.14;97388.66;10328100;28;98382;-67
2022/01/27 20:48:53;;;;;;;77.93;28.07;;;;;;;-4.83;83.57;97389.53;10333741;28;102862;-67
2022/01/27 20:53:58;;;;;;;68.07;27.13;;;;;;;-4.99;83.98;97397.44;10318177;28;96883;-67
2022/01/27 20:59:03;;;;;;;59.47;25.63;;;;;;;-5.08;84.12;97389.97;10318642;28;98239;-67
2022/01/27 21:04:26;;;;;;;57.60;27.75;;;;;;;-5.14;84.09;97402.81;10317315;28;97028;-67
2022/01/27 21:09:30;;;;;;;65.72;28.00;;;;;;;-5.38;84.64;97411.66;10307033;28;96760;-68
2022/01/27 21:14:36;;;;;;;69.55;27.77;;;;;;;-5.43;84.36;97404.06;10328601;28;98432;-68
2022/01/27 21:19:39;;;;;;;59.00;26.75;;;;;;;-5.43;84.33;97414.25;10321139;28;99246;-67
2022/01/27 21:24:42;;;;;;;50.58;23.70;;;;;;;-5.47;84.10;97425.34;10326626;28;96879;-67
2022/01/27 21:29:46;;;;;;;50.72;24.88;;;;;;;-5.51;83.72;97421.16;10321855;28;100882;-68
2022/01/27 21:34:51;;;;;;;64.60;26.50;;;;;;;-5.66;84.37;97451.03;10327853;28;96756;-68
2022/01/27 21:40:02;;;;;;;52.00;25.15;;;;;;;-5.60;84.81;97442.47;10315144;28;99087;-68
2022/01/27 21:45:08;;;;;;;59.20;26.98;;;;;;;-5.51;84.63;97432.19;10329494;28;98805;-70
2022/01/27 21:50:13;;;;;;;54.65;25.40;;;;;;;-5.38;84.58;97417.59;10319644;28;97152;-68
2022/01/27 21:55:17;;;;;;;;;;;;;;;-5.43;84.21;97434.63;10322291;28;96985;-68
2022/01/27 22:00:22;;;;;;;57.45;27.60;;;;;;;-5.63;84.00;97451.00;10345440;28;97062;-67
2022/01/27 22:05:29;;;;;;;61.40;27.67;;;;;;;-5.66;83.83;97425.59;10311812;28;97427;-67
2022/01/27 22:10:32;;;;;;;60.50;26.40;;;;;;;-5.60;83.93;97421.28;10316910;28;97293;-67
2022/01/27 22:15:37;;;;;;;60.33;26.95;;;;;;;-5.63;83.91;97412.81;10319401;28;97222;-68
2022/01/27 22:20:39;;;;;;;50.63;25.10;;;;;;;-5.79;84.50;97406.22;10315147;28;97648;-67
2022/01/27 22:25:42;;;;;;;52.80;24.05;;;;;;;-5.82;84.32;97403.75;10336866;28;98335;-67
2022/01/27 22:30:47;;;;;;;58.00;24.85;;;;;;;-5.75;84.13;97405.34;10344795;28;98514;-68
2022/01/27 22:35:50;;;;;;;51.58;22.70;;;;;;;-5.65;84.26;97395.88;10315232;28;96847;-67
2022/01/27 22:40:53;;;;;;;53.92;24.30;;;;;;;-5.72;84.64;97414.63;10315082;28;103986;-68
2022/01/27 22:45:57;;;;;;;53.90;24.25;;;;;;;-5.75;84.81;97441.00;10328423;28;97100;-67
2022/01/27 22:51:01;;;;;;;56.88;26.58;;;;;;;-5.64;84.13;97445.94;10334633;28;97223;-67
2022/01/27 22:56:06;;;;;;;45.90;22.17;;;;;;;-5.62;84.16;97450.13;10314052;28;97186;-67
2022/01/27 23:01:10;;;;;;;46.80;21.52;;;;;;;-5.58;84.03;97452.66;10332150;28;98975;-67
2022/01/27 23:06:13;;;;;;;53.33;24.00;;;;;;;-5.53;84.05;97458.53;10336680;28;96932;-67
2022/01/27 23:11:22;;;;;;;51.92;22.90;;;;;;;-5.39;84.28;97486.38;10340550;28;97570;-67
2022/01/27 23:16:43;;;;;;;57.40;24.05;;;;;;;-5.19;84.13;97498.84;10336690;28;96837;-68
2022/01/27 23:21:55;;;;;;;57.00;24.95;;;;;;;-5.11;83.92;97536.09;10315829;28;97004;-68
2022/01/27 23:27:06;;;;;;;55.00;25.13;;;;;;;-5.17;84.58;97540.44;10324330;28;97557;-67
2022/01/27 23:32:10;;;;;;;61.33;26.90;;;;;;;-5.21;84.71;97537.06;10331647;28;98229;-67
2022/01/27 23:42:59;;;;;;;60.28;25.52;;;;;;;-5.11;84.20;97553.06;10313544;28;97003;-67
2022/01/27 23:48:16;;;;;;;50.40;24.60;;;;;;;-5.04;84.63;97529.22;10350229;28;97175;-68
2022/01/27 23:53:28;;;;;;;48.47;23.55;;;;;;;-4.90;84.85;97512.00;10330813;28;97743;-68